• Join FlightAware (Why Join?)
  • Login
  • US Flag 
01:55PM EDT


 

Airport Tracker/Info


-or-


 

Live Flight TrackerFlight Track Log ✈ FLG3326 ✈ 09-Jun-2013 ✈ KDFW - KMSP

Flight Track Log - Related Links

Times and Time Zones

All times are in EDT time to prevent confusion due to time zone crossing. See the FLG3326 flight status page for this flight to view local times or setup timezone preferences in your user account.

Time Position Orientation Groundspeed Altitude Reporting Facility
EDT Latitude Longitude Course Direction KTS MPH feet Rate Location/Type
07:39PM 32.8833 -97.0500 180° South 180 207 1,100  Level Dallas / Fort Worth TRACON
07:40PM 32.8500 -97.0500 180° South 193 222 2,100 1,620 Climbing Dallas / Fort Worth TRACON
07:40PM 32.8000 -97.0667 196° South 232 267 3,600 1,860 Climbing Dallas / Fort Worth TRACON
07:41PM 32.7667 -97.1500 245° Southwest 256 295 5,700 1,980 Climbing Dallas / Fort Worth TRACON
07:42PM 32.7833 -97.2333 283° West 280 322 7,600 2,100 Climbing Dallas / Fort Worth TRACON
07:44PM 32.8603 -97.2700 338° Northwest 287 330 10,600 1,860 Climbing Fort Worth Center
07:45PM 32.9522 -97.2722 359° North 290 334 11,900 1,500 Climbing Fort Worth Center
07:46PM 33.0336 -97.2597 North 313 360 13,600 1,680 Climbing Fort Worth Center
07:47PM 33.1339 -97.2225 17° North 330 380 15,300 1,680 Climbing Fort Worth Center
07:48PM 33.2172 -97.1925 17° North 347 399 17,000 1,680 Climbing Fort Worth Center
07:49PM 33.3133 -97.1625 15° North 352 405 18,700 1,380 Climbing Fort Worth Center
07:50PM 33.4217 -97.1222 17° North 357 411 19,800 1,320 Climbing Fort Worth Center
07:51PM 33.5094 -97.1044 10° North 357 411 21,400 1,320 Climbing Fort Worth Center
07:52PM 33.6242 -97.0967 North 363 418 22,500 960 Climbing Fort Worth Center
07:53PM 33.7200 -97.0939 North 376 433 23,400 900 Climbing Fort Worth Center
07:54PM 33.8392 -97.0908 North 382 440 24,300 840 Climbing Fort Worth Center
07:55PM 33.9497 -97.0856 North 387 445 25,100 900 Climbing Fort Worth Center
07:56PM 34.0664 -97.0825 North 399 459 26,100 1,020 Climbing Fort Worth Center
07:57PM 34.1792 -97.0822 360° North 399 459 27,200 1,020 Climbing Fort Worth Center
07:58PM 34.3003 -97.0792 North 411 473 28,200 960 Climbing Fort Worth Center
07:59PM 34.4169 -97.0761 North 422 486 29,200 960 Climbing Fort Worth Center
08:00PM 34.5381 -97.0731 North 422 486 30,200 960 Climbing Fort Worth Center
08:01PM 34.6569 -97.0678 North 422 486 31,200 960 Climbing Fort Worth Center
08:02PM 34.7758 -97.0672 360° North 422 486 32,200 960 Climbing Fort Worth Center
08:03PM 34.8928 -97.0617 North 417 480 33,200 780 Climbing Fort Worth Center
08:04PM 35.0117 -97.0561 North 422 486 33,800 -120 Climbing Fort Worth Center
08:05PM 35.1261 -97.0225 14° North 422 486 33,000 -420 Descending Fort Worth Center
08:06PM 35.2408 -96.9839 15° North 422 486 33,000  Level Fort Worth Center
08:07PM 35.3533 -96.9478 15° North 427 491 33,000  Level Fort Worth Center
08:09PM 35.5547 -96.8811 15° North 419 482 33,000  Level Kansas City Center
08:10PM 35.6894 -96.8364 15° North 419 482 33,000  Level Kansas City Center
08:11PM 35.8011 -96.8008 14° North 417 480 33,000  Level Kansas City Center
08:12PM 35.9133 -96.7639 15° North 419 482 33,000  Level Kansas City Center
08:13PM 36.0264 -96.7264 15° North 421 484 33,000  Level Kansas City Center
08:14PM 36.1364 -96.6894 15° North 422 486 33,000  Level Kansas City Center
08:15PM 36.2517 -96.6522 15° North 423 487 33,000  Level Kansas City Center
08:16PM 36.3639 -96.6136 15° North 419 482 33,000  Level Kansas City Center
08:17PM 36.4992 -96.5664 16° North 418 481 33,000  Level Kansas City Center
08:18PM 36.6122 -96.5292 15° North 418 481 33,000  Level Kansas City Center
08:19PM 36.7278 -96.4889 16° North 423 487 33,000  Level Kansas City Center
08:20PM 36.8417 -96.4494 15° North 423 487 33,000  Level Kansas City Center
08:21PM 36.9561 -96.4100 15° North 423 487 33,000  Level Kansas City Center
08:22PM 37.0700 -96.3722 15° North 423 487 33,000  Level Kansas City Center
08:23PM 37.1839 -96.3325 16° North 421 484 33,000  Level Kansas City Center
08:24PM 37.2972 -96.2931 15° North 422 486 33,000  Level Kansas City Center
08:25PM 37.4114 -96.2536 15° North 421 484 33,000  Level Kansas City Center
08:26PM 37.5250 -96.2136 16° North 422 486 33,000  Level Kansas City Center
08:27PM 37.6622 -96.1658 15° North 423 487 33,000  Level Kansas City Center
08:28PM 37.7578 -96.1319 16° North 430 495 33,000  Level Kansas City Center
08:29PM 37.8900 -96.0858 15° North 418 481 33,000  Level Kansas City Center
08:30PM 37.9928 -96.0500 15° North 417 480 33,000  Level Kansas City Center
08:31PM 38.1181 -96.0061 15° North 418 481 33,000  Level Kansas City Center
08:32PM 38.2250 -95.9669 16° North 417 480 33,000  Level Kansas City Center
08:33PM 38.3497 -95.9228 16° North 417 480 33,000  Level Kansas City Center
08:34PM 38.4578 -95.8842 16° North 419 482 33,000  Level Kansas City Center
08:35PM 38.5636 -95.8436 17° North 416 479 33,000  Level Kansas City Center
08:36PM 38.6889 -95.7986 16° North 415 478 33,000  Level Kansas City Center
08:37PM 38.7967 -95.7603 15° North 418 481 33,000  Level Kansas City Center
08:38PM 38.9208 -95.7161 15° North 413 475 33,000  Level Kansas City Center
08:39PM 39.0275 -95.6767 16° North 414 476 33,000  Level Kansas City Center
08:40PM 39.1342 -95.6386 15° North 413 475 33,000  Level Kansas City Center
08:42PM 39.2586 -95.5936 16° North 411 473 33,000  Level Kansas City Center
08:43PM 39.3650 -95.5539 16° North 411 473 33,000  Level Kansas City Center
08:44PM 39.4714 -95.5150 16° North 410 472 33,000  Level Kansas City Center
08:45PM 39.5922 -95.4689 16° North 402 463 33,000  Level Kansas City Center
08:46PM 39.6931 -95.4311 16° North 392 451 33,000  Level Kansas City Center
08:47PM 39.8083 -95.3883 16° North 385 443 33,000  Level Kansas City Center
08:48PM 39.9069 -95.3514 16° North 383 441 33,000  Level Kansas City Center
08:49PM 40.0064 -95.3136 16° North 387 445 33,000  Level Kansas City Center
08:50PM 40.1236 -95.2689 16° North 393 452 33,000  Level Kansas City Center
08:51PM 40.2169 -95.2336 16° North 391 450 33,000  Level Minneapolis Center
08:52PM 40.3211 -95.1958 15° North 389 448 33,000  Level Minneapolis Center
08:53PM 40.4242 -95.1544 17° North 389 448 33,000  Level Minneapolis Center
08:54PM 40.5267 -95.1164 16° North 386 444 33,000  Level Minneapolis Center
08:55PM 40.6286 -95.0775 16° North 384 442 33,000  Level Minneapolis Center
08:56PM 40.7286 -95.0381 17° North 382 440 33,000  Level Minneapolis Center
08:57PM 40.8497 -94.9919 16° North 380 437 33,000  Level Minneapolis Center
08:58PM 40.9494 -94.9542 16° North 377 434 33,000  Level Minneapolis Center
08:59PM 41.0489 -94.9139 17° North 376 433 33,000  Level Minneapolis Center
09:00PM 41.1478 -94.8764 16° North 374 430 33,000  Level Minneapolis Center
09:01PM 41.2667 -94.8306 16° North 373 429 33,000  Level Minneapolis Center
09:02PM 41.3653 -94.7917 16° North 372 428 33,000  Level Minneapolis Center
09:03PM 41.4639 -94.7528 16° North 371 427 33,000  Level Minneapolis Center
09:04PM 41.5633 -94.7144 16° North 372 428 33,000  Level Minneapolis Center
09:05PM 41.6625 -94.6758 16° North 372 428 33,000  Level Minneapolis Center
09:06PM 41.7614 -94.6369 16° North 371 427 33,000  Level Minneapolis Center
09:07PM 41.8792 -94.5900 17° North 369 425 33,000  Level Minneapolis Center
09:08PM 41.9789 -94.5506 16° North 373 429 33,000 -480 Level Minneapolis Center
09:09PM 42.0775 -94.5103 17° North 373 429 32,100 -960 Descending Minneapolis Center
09:10PM 42.1797 -94.4697 16° North 380 437 31,100 -540 Descending Minneapolis Center
09:11PM 42.2817 -94.4292 16° North 383 441 31,000 -60 Descending Minneapolis Center
09:12PM 42.3839 -94.3881 17° North 383 441 31,000  Level Minneapolis Center
09:13PM 42.4900 -94.3436 17° North 384 442 31,000  Level Minneapolis Center
09:14PM 42.5897 -94.3017 17° North 380 437 31,000  Level Minneapolis Center
09:15PM 42.7006 -94.1981 34° Northeast 408 470 31,000  Level Minneapolis Center
09:16PM 42.7853 -94.1019 40° Northeast 401 461 31,000  Level Minneapolis Center
09:17PM 42.8725 -94.0064 39° Northeast 403 464 31,000 -60 Level Minneapolis Center
09:19PM 42.9589 -93.9122 39° Northeast 400 460 30,900 -840 Descending Minneapolis Center
09:20PM 43.0425 -93.8192 39° Northeast 393 452 29,400 -1,620 Descending Minneapolis Center
09:21PM 43.1403 -93.7106 39° Northeast 381 438 27,600 -1,620 Descending Minneapolis Center
09:22PM 43.2133 -93.6281 39° Northeast 354 407 26,100 -1,500 Descending Minneapolis Center
09:23PM 43.2969 -93.5542 33° Northeast 363 418 24,600 -1,020 Descending Minneapolis Center
09:24PM 43.4003 -93.5417 North 375 432 24,000 -300 Descending Minneapolis Center
09:25PM 43.5072 -93.5325 North 383 441 24,000 -960 Level Minneapolis Center
09:26PM 43.6361 -93.5189 North 389 448 22,100 -1,920 Descending Minneapolis Center
09:27PM 43.7442 -93.5094 North 391 450 20,100 -2,040 Descending Minneapolis Center
09:28PM 43.8497 -93.4989 North 382 440 18,000 -2,040 Descending Minneapolis Center
09:29PM 43.9500 -93.4892 North 373 429 16,000 -1,980 Descending Minneapolis Center
09:30PM 44.0517 -93.4803 North 369 425 14,000 -1,980 Descending Minneapolis Center
09:31PM 44.1522 -93.4694 North 364 419 12,000 -1,500 Descending Minneapolis Center
09:32PM 44.2631 -93.4411 10° North 339 390 11,000 -540 Descending Minneapolis Center
09:33PM 44.3472 -93.3817 27° Northeast 341 392 11,000  Level Minneapolis Center
09:34PM 44.4347 -93.3208 26° Northeast 353 406 11,000  Level Minneapolis Center
09:35PM 44.5208 -93.2594 27° Northeast 350 403 11,000  Level Minneapolis Center
09:36PM 44.6075 -93.1997 26° Northeast 351 404 11,000 -360 Level Minneapolis Center
09:37PM 44.6944 -93.2225 349° North 321 369 10,300 -1,080 Descending Minneapolis Center
09:38PM 44.7736 -93.2714 336° Northwest 294 338 8,800 -1,140 Descending Minneapolis Center
09:39PM 44.8331 -93.3314 324° Northwest 264 304 8,000 -420 Descending Minneapolis Center
09:40PM 44.8689 -93.4147 301° West 250 288 8,000  Level Minneapolis Center
09:41PM 44.9111 -93.5136 301° West 247 284 8,000  Level Minneapolis Center
09:42PM 44.9456 -93.5939 301° West 241 277 8,000  Level Minneapolis Center
09:43PM 44.9797 -93.6750 301° West 241 277 8,000  Level Minneapolis Center
09:44PM 45.0150 -93.7547 302° West 241 277 8,000 -540 Level Minneapolis Center
09:45PM 45.0644 -93.8072 323° Northwest 249 287 6,900 -1,020 Descending Minneapolis Center
09:46PM 45.0969 -93.7331 58° Northeast 226 260 6,000 -480 Descending Minneapolis Center
09:47PM 45.0742 -93.6675 116° Southeast 189 217 6,000  Level Minneapolis Center
09:48PM 45.0483 -93.6058 121° Southeast 183 211 6,000 -120 Level Minneapolis Center
09:49PM 45.0161 -93.5317 122° Southeast 185 213 5,800 -660 Descending Minneapolis Center
09:50PM 44.9906 -93.4711 121° Southeast 181 208 4,700 -1,020 Descending Minneapolis Center
09:51PM 44.9656 -93.4147 122° Southeast 171 197 3,800 -900 Descending Minneapolis Center